sensor_id;sensor_type;location;lat;lon;timestamp;pressure;altitude;pressure_sealevel;temperature;humidity
28588;BME280;15787;49.662;10.162;2022-11-12T00:01:50;100815.19;;;5.78;100.00
28588;BME280;15787;49.662;10.162;2022-11-12T00:04:37;100814.06;;;5.51;100.00
28588;BME280;15787;49.662;10.162;2022-11-12T00:07:24;100817.44;;;5.45;100.00
28588;BME280;15787;49.662;10.162;2022-11-12T00:10:10;100814.22;;;5.43;100.00
28588;BME280;15787;49.662;10.162;2022-11-12T00:12:56;100811.56;;;5.19;100.00
28588;BME280;15787;49.662;10.162;2022-11-12T00:15:44;100802.78;;;5.44;100.00
28588;BME280;15787;49.662;10.162;2022-11-12T00:18:31;100795.41;;;5.21;100.00
28588;BME280;15787;49.662;10.162;2022-11-12T00:21:19;100791.44;;;5.49;100.00
28588;BME280;15787;49.662;10.162;2022-11-12T00:24:06;100799.69;;;5.61;100.00
28588;BME280;15787;49.662;10.162;2022-11-12T00:26:52;100805.34;;;5.37;100.00
28588;BME280;15787;49.662;10.162;2022-11-12T00:29:38;100802.69;;;5.41;100.00
28588;BME280;15787;49.662;10.162;2022-11-12T00:32:25;100807.25;;;5.33;100.00
28588;BME280;15787;49.662;10.162;2022-11-12T00:35:11;100812.41;;;5.35;100.00
28588;BME280;15787;49.662;10.162;2022-11-12T00:38:00;100796.50;;;5.32;100.00
28588;BME280;15787;49.662;10.162;2022-11-12T00:40:46;100805.28;;;5.49;100.00
28588;BME280;15787;49.662;10.162;2022-11-12T00:43:33;100798.59;;;5.50;100.00
28588;BME280;15787;49.662;10.162;2022-11-12T00:46:19;100804.84;;;5.47;100.00
28588;BME280;15787;49.662;10.162;2022-11-12T00:49:06;100807.81;;;5.27;100.00
28588;BME280;15787;49.662;10.162;2022-11-12T00:51:52;100802.19;;;5.51;100.00
28588;BME280;15787;49.662;10.162;2022-11-12T00:54:40;100800.47;;;5.46;100.00
28588;BME280;15787;49.662;10.162;2022-11-12T00:57:26;100795.75;;;5.62;100.00
28588;BME280;15787;49.662;10.162;2022-11-12T01:00:15;100801.31;;;5.78;100.00
28588;BME280;15787;49.662;10.162;2022-11-12T01:03:02;100803.34;;;5.22;100.00
28588;BME280;15787;49.662;10.162;2022-11-12T01:05:48;100808.63;;;5.27;100.00
28588;BME280;15787;49.662;10.162;2022-11-12T01:08:35;100802.16;;;5.35;100.00
28588;BME280;15787;49.662;10.162;2022-11-12T01:11:25;100805.63;;;5.04;100.00
28588;BME280;15787;49.662;10.162;2022-11-12T01:14:11;100804.22;;;5.38;100.00
28588;BME280;15787;49.662;10.162;2022-11-12T01:16:58;100790.84;;;4.61;100.00
28588;BME280;15787;49.662;10.162;2022-11-12T01:19:48;100793.94;;;5.11;100.00
28588;BME280;15787;49.662;10.162;2022-11-12T01:22:35;100792.88;;;5.43;100.00
28588;BME280;15787;49.662;10.162;2022-11-12T01:25:21;100800.16;;;5.63;100.00
28588;BME280;15787;49.662;10.162;2022-11-12T01:28:09;100794.56;;;5.48;100.00
28588;BME280;15787;49.662;10.162;2022-11-12T01:30:55;100798.66;;;5.38;100.00
28588;BME280;15787;49.662;10.162;2022-11-12T01:33:43;100801.88;;;5.40;100.00
28588;BME280;15787;49.662;10.162;2022-11-12T01:36:32;100796.25;;;5.09;100.00
28588;BME280;15787;49.662;10.162;2022-11-12T01:39:19;100792.09;;;5.15;100.00
28588;BME280;15787;49.662;10.162;2022-11-12T01:42:05;100788.31;;;4.68;100.00
28588;BME280;15787;49.662;10.162;2022-11-12T01:44:53;100785.59;;;5.23;100.00
28588;BME280;15787;49.662;10.162;2022-11-12T01:52:10;100793.28;;;5.30;100.00
28588;BME280;15787;49.662;10.162;2022-11-12T01:55:02;100784.78;;;5.23;100.00
28588;BME280;15787;49.662;10.162;2022-11-12T01:57:54;100787.75;;;5.30;100.00
28588;BME280;15787;49.662;10.162;2022-11-12T02:00:44;100788.81;;;5.25;100.00
28588;BME280;15787;49.662;10.162;2022-11-12T02:03:31;100788.09;;;5.28;100.00
28588;BME280;15787;49.662;10.162;2022-11-12T02:06:18;100789.50;;;4.94;100.00
28588;BME280;15787;49.662;10.162;2022-11-12T02:09:05;100785.84;;;5.18;100.00
28588;BME280;15787;49.662;10.162;2022-11-12T02:11:52;100774.59;;;5.27;100.00
28588;BME280;15787;49.662;10.162;2022-11-12T02:14:38;100777.03;;;5.28;100.00
28588;BME280;15787;49.662;10.162;2022-11-12T02:17:25;100776.91;;;4.97;100.00
28588;BME280;15787;49.662;10.162;2022-11-12T02:20:13;100775.22;;;5.20;100.00
28588;BME280;15787;49.662;10.162;2022-11-12T02:23:01;100773.75;;;5.10;100.00
28588;BME280;15787;49.662;10.162;2022-11-12T02:25:47;100780.56;;;4.73;100.00
28588;BME280;15787;49.662;10.162;2022-11-12T02:28:34;100773.84;;;4.86;100.00
28588;BME280;15787;49.662;10.162;2022-11-12T02:31:20;100767.72;;;5.21;100.00
28588;BME280;15787;49.662;10.162;2022-11-12T02:34:06;100763.13;;;4.33;100.00
28588;BME280;15787;49.662;10.162;2022-11-12T02:36:53;100760.44;;;4.88;100.00
28588;BME280;15787;49.662;10.162;2022-11-12T02:39:40;100770.13;;;4.55;100.00
28588;BME280;15787;49.662;10.162;2022-11-12T02:42:27;100761.06;;;4.82;100.00
28588;BME280;15787;49.662;10.162;2022-11-12T02:45:13;100764.69;;;4.70;100.00
28588;BME280;15787;49.662;10.162;2022-11-12T02:48:00;100778.56;;;4.86;100.00
28588;BME280;15787;49.662;10.162;2022-11-12T02:50:46;100783.41;;;4.89;100.00
28588;BME280;15787;49.662;10.162;2022-11-12T02:53:33;100777.22;;;5.07;100.00
28588;BME280;15787;49.662;10.162;2022-11-12T02:56:21;100778.63;;;5.01;100.00
28588;BME280;15787;49.662;10.162;2022-11-12T02:59:07;100770.31;;;4.74;100.00
28588;BME280;15787;49.662;10.162;2022-11-12T03:01:54;100776.91;;;4.97;100.00
28588;BME280;15787;49.662;10.162;2022-11-12T03:04:40;100773.16;;;4.89;100.00
28588;BME280;15787;49.662;10.162;2022-11-12T03:07:33;100773.88;;;4.34;100.00
28588;BME280;15787;49.662;10.162;2022-11-12T03:10:19;100769.31;;;4.54;100.00
28588;BME280;15787;49.662;10.162;2022-11-12T03:13:08;100772.50;;;4.68;100.00
28588;BME280;15787;49.662;10.162;2022-11-12T03:15:58;100774.66;;;4.47;100.00
28588;BME280;15787;49.662;10.162;2022-11-12T03:18:45;100777.63;;;4.54;100.00
28588;BME280;15787;49.662;10.162;2022-11-12T03:21:31;100774.59;;;4.99;100.00
28588;BME280;15787;49.662;10.162;2022-11-12T03:24:18;100779.72;;;4.33;100.00
28588;BME280;15787;49.662;10.162;2022-11-12T03:27:04;100770.94;;;4.43;100.00
28588;BME280;15787;49.662;10.162;2022-11-12T03:29:52;100769.00;;;4.43;100.00
28588;BME280;15787;49.662;10.162;2022-11-12T03:32:38;100771.69;;;4.16;100.00
28588;BME280;15787;49.662;10.162;2022-11-12T03:35:25;100774.50;;;4.56;100.00
28588;BME280;15787;49.662;10.162;2022-11-12T03:38:12;100774.81;;;4.66;100.00
28588;BME280;15787;49.662;10.162;2022-11-12T03:40:58;100779.69;;;4.57;100.00
28588;BME280;15787;49.662;10.162;2022-11-12T03:43:44;100772.19;;;4.97;100.00
28588;BME280;15787;49.662;10.162;2022-11-12T03:46:32;100781.13;;;4.27;100.00
28588;BME280;15787;49.662;10.162;2022-11-12T03:49:21;100789.75;;;4.89;100.00
28588;BME280;15787;49.662;10.162;2022-11-12T03:52:08;100784.41;;;4.57;100.00
28588;BME280;15787;49.662;10.162;2022-11-12T03:54:55;100793.69;;;4.24;100.00
28588;BME280;15787;49.662;10.162;2022-11-12T03:57:41;100792.88;;;3.88;100.00
28588;BME280;15787;49.662;10.162;2022-11-12T04:00:29;100791.72;;;4.13;100.00
28588;BME280;15787;49.662;10.162;2022-11-12T04:03:17;100792.88;;;4.36;100.00
28588;BME280;15787;49.662;10.162;2022-11-12T04:06:03;100785.38;;;4.36;100.00
28588;BME280;15787;49.662;10.162;2022-11-12T04:09:08;100788.38;;;4.83;100.00
28588;BME280;15787;49.662;10.162;2022-11-12T04:11:54;100793.56;;;4.33;100.00
28588;BME280;15787;49.662;10.162;2022-11-12T04:15:00;100789.34;;;4.75;100.00
28588;BME280;15787;49.662;10.162;2022-11-12T04:17:46;100795.41;;;3.93;100.00
28588;BME280;15787;49.662;10.162;2022-11-12T04:20:51;100790.31;;;3.95;100.00
28588;BME280;15787;49.662;10.162;2022-11-12T04:24:04;100796.31;;;4.33;100.00
28588;BME280;15787;49.662;10.162;2022-11-12T04:26:51;100798.97;;;3.93;100.00
28588;BME280;15787;49.662;10.162;2022-11-12T04:29:36;100802.06;;;4.40;100.00
28588;BME280;15787;49.662;10.162;2022-11-12T04:32:45;100798.41;;;4.00;100.00
28588;BME280;15787;49.662;10.162;2022-11-12T04:35:32;100805.44;;;4.09;100.00
28588;BME280;15787;49.662;10.162;2022-11-12T04:38:20;100801.41;;;4.19;100.00
28588;BME280;15787;49.662;10.162;2022-11-12T04:41:07;100796.78;;;4.23;100.00
28588;BME280;15787;49.662;10.162;2022-11-12T04:44:11;100789.88;;;4.29;100.00
28588;BME280;15787;49.662;10.162;2022-11-12T04:47:15;100792.97;;;3.79;100.00
28588;BME280;15787;49.662;10.162;2022-11-12T04:50:04;100795.41;;;3.80;100.00
28588;BME280;15787;49.662;10.162;2022-11-12T04:52:51;100788.63;;;4.14;100.00
28588;BME280;15787;49.662;10.162;2022-11-12T04:55:39;100790.13;;;4.24;100.00
28588;BME280;15787;49.662;10.162;2022-11-12T04:58:25;100793.78;;;3.92;100.00
28588;BME280;15787;49.662;10.162;2022-11-12T05:01:12;100800.47;;;3.91;100.00
28588;BME280;15787;49.662;10.162;2022-11-12T05:04:00;100795.19;;;4.22;100.00
28588;BME280;15787;49.662;10.162;2022-11-12T05:06:46;100803.25;;;3.91;100.00
28588;BME280;15787;49.662;10.162;2022-11-12T05:09:39;100809.09;;;3.89;100.00
28588;BME280;15787;49.662;10.162;2022-11-12T05:12:27;100792.16;;;4.51;100.00
28588;BME280;15787;49.662;10.162;2022-11-12T05:15:14;100796.53;;;4.40;100.00
28588;BME280;15787;49.662;10.162;2022-11-12T05:18:00;100794.31;;;4.70;100.00
28588;BME280;15787;49.662;10.162;2022-11-12T05:20:47;100801.84;;;4.57;100.00
28588;BME280;15787;49.662;10.162;2022-11-12T05:23:36;100802.31;;;3.99;100.00
28588;BME280;15787;49.662;10.162;2022-11-12T05:26:22;100798.63;;;3.95;100.00
28588;BME280;15787;49.662;10.162;2022-11-12T05:29:10;100787.47;;;4.03;100.00
28588;BME280;15787;49.662;10.162;2022-11-12T05:31:57;100798.38;;;3.63;100.00
28588;BME280;15787;49.662;10.162;2022-11-12T05:34:43;100790.22;;;3.91;100.00
28588;BME280;15787;49.662;10.162;2022-11-12T05:37:30;100792.34;;;3.61;100.00
28588;BME280;15787;49.662;10.162;2022-11-12T05:40:16;100792.53;;;4.25;100.00
28588;BME280;15787;49.662;10.162;2022-11-12T05:43:03;100791.06;;;3.47;100.00
28588;BME280;15787;49.662;10.162;2022-11-12T05:45:50;100790.69;;;3.81;100.00
28588;BME280;15787;49.662;10.162;2022-11-12T05:48:37;100805.53;;;3.89;100.00
28588;BME280;15787;49.662;10.162;2022-11-12T05:51:23;100803.34;;;3.94;100.00
28588;BME280;15787;49.662;10.162;2022-11-12T05:54:10;100800.81;;;4.25;100.00
28588;BME280;15787;49.662;10.162;2022-11-12T05:56:56;100805.56;;;4.37;100.00
28588;BME280;15787;49.662;10.162;2022-11-12T05:59:43;100808.31;;;4.13;100.00
28588;BME280;15787;49.662;10.162;2022-11-12T06:02:31;100809.25;;;4.29;100.00
28588;BME280;15787;49.662;10.162;2022-11-12T06:05:17;100812.78;;;3.81;100.00
28588;BME280;15787;49.662;10.162;2022-11-12T06:08:05;100809.75;;;3.74;100.00
28588;BME280;15787;49.662;10.162;2022-11-12T06:10:52;100815.28;;;3.74;100.00
28588;BME280;15787;49.662;10.162;2022-11-12T06:13:39;100811.53;;;3.91;100.00
28588;BME280;15787;49.662;10.162;2022-11-12T06:16:28;100807.84;;;4.23;100.00
28588;BME280;15787;49.662;10.162;2022-11-12T06:19:16;100817.06;;;4.39;100.00
28588;BME280;15787;49.662;10.162;2022-11-12T06:22:02;100811.50;;;4.51;100.00
28588;BME280;15787;49.662;10.162;2022-11-12T06:24:49;100821.19;;;4.45;100.00
28588;BME280;15787;49.662;10.162;2022-11-12T06:27:35;100828.84;;;4.12;100.00
28588;BME280;15787;49.662;10.162;2022-11-12T06:30:22;100823.75;;;4.02;100.00
28588;BME280;15787;49.662;10.162;2022-11-12T06:33:10;100817.41;;;4.37;100.00
28588;BME280;15787;49.662;10.162;2022-11-12T06:35:59;100823.06;;;4.29;100.00
28588;BME280;15787;49.662;10.162;2022-11-12T06:38:47;100826.50;;;4.50;100.00
28588;BME280;15787;49.662;10.162;2022-11-12T06:41:34;100831.81;;;4.43;100.00
28588;BME280;15787;49.662;10.162;2022-11-12T06:44:20;100828.94;;;4.15;100.00
28588;BME280;15787;49.662;10.162;2022-11-12T06:47:07;100831.59;;;4.24;100.00
28588;BME280;15787;49.662;10.162;2022-11-12T06:49:53;100831.94;;;4.46;100.00
28588;BME280;15787;49.662;10.162;2022-11-12T06:52:41;100830.66;;;4.44;100.00
28588;BME280;15787;49.662;10.162;2022-11-12T06:55:27;100824.41;;;4.59;100.00
28588;BME280;15787;49.662;10.162;2022-11-12T06:58:14;100834.56;;;4.43;100.00
28588;BME280;15787;49.662;10.162;2022-11-12T07:01:08;100819.63;;;4.32;100.00
28588;BME280;15787;49.662;10.162;2022-11-12T07:03:56;100831.25;;;4.13;100.00
28588;BME280;15787;49.662;10.162;2022-11-12T07:06:42;100830.09;;;4.38;100.00
28588;BME280;15787;49.662;10.162;2022-11-12T07:09:30;100841.16;;;4.63;100.00
28588;BME280;15787;49.662;10.162;2022-11-12T07:12:17;100836.03;;;4.77;100.00
28588;BME280;15787;49.662;10.162;2022-11-12T07:15:04;100840.91;;;4.68;100.00
28588;BME280;15787;49.662;10.162;2022-11-12T07:17:50;100832.97;;;4.54;100.00
28588;BME280;15787;49.662;10.162;2022-11-12T07:20:37;100837.22;;;4.52;100.00
28588;BME280;15787;49.662;10.162;2022-11-12T07:23:23;100827.78;;;4.40;100.00
28588;BME280;15787;49.662;10.162;2022-11-12T07:26:13;100828.13;;;4.51;100.00
28588;BME280;15787;49.662;10.162;2022-11-12T07:29:00;100828.47;;;4.50;100.00
28588;BME280;15787;49.662;10.162;2022-11-12T07:31:46;100820.41;;;4.44;100.00
28588;BME280;15787;49.662;10.162;2022-11-12T07:34:32;100820.50;;;4.60;100.00
28588;BME280;15787;49.662;10.162;2022-11-12T07:37:19;100827.53;;;4.45;100.00
28588;BME280;15787;49.662;10.162;2022-11-12T07:40:06;100829.41;;;4.41;100.00
28588;BME280;15787;49.662;10.162;2022-11-12T07:42:54;100820.69;;;4.79;100.00
28588;BME280;15787;49.662;10.162;2022-11-12T07:45:40;100829.34;;;4.78;100.00
28588;BME280;15787;49.662;10.162;2022-11-12T07:48:28;100830.84;;;4.63;100.00
28588;BME280;15787;49.662;10.162;2022-11-12T07:51:17;100827.97;;;4.72;100.00
28588;BME280;15787;49.662;10.162;2022-11-12T07:54:04;100835.47;;;4.71;100.00
28588;BME280;15787;49.662;10.162;2022-11-12T07:56:50;100824.97;;;4.77;100.00
28588;BME280;15787;49.662;10.162;2022-11-12T07:59:38;100843.88;;;5.15;100.00
28588;BME280;15787;49.662;10.162;2022-11-12T08:02:30;100840.19;;;4.83;100.00
28588;BME280;15787;49.662;10.162;2022-11-12T08:05:17;100831.78;;;4.67;100.00
28588;BME280;15787;49.662;10.162;2022-11-12T08:08:05;100835.50;;;4.47;100.00
28588;BME280;15787;49.662;10.162;2022-11-12T08:10:53;100844.09;;;5.22;100.00
28588;BME280;15787;49.662;10.162;2022-11-12T08:13:40;100836.44;;;5.31;100.00
28588;BME280;15787;49.662;10.162;2022-11-12T08:16:28;100837.50;;;5.26;100.00
28588;BME280;15787;49.662;10.162;2022-11-12T08:19:15;100831.47;;;4.96;100.00
28588;BME280;15787;49.662;10.162;2022-11-12T08:22:01;100833.63;;;4.75;100.00
28588;BME280;15787;49.662;10.162;2022-11-12T08:24:48;100840.47;;;4.93;100.00
28588;BME280;15787;49.662;10.162;2022-11-12T08:27:34;100842.63;;;5.12;100.00
28588;BME280;15787;49.662;10.162;2022-11-12T08:30:20;100842.75;;;5.16;100.00
28588;BME280;15787;49.662;10.162;2022-11-12T08:33:08;100841.47;;;5.41;100.00
28588;BME280;15787;49.662;10.162;2022-11-12T08:35:56;100847.41;;;5.27;100.00
28588;BME280;15787;49.662;10.162;2022-11-12T08:38:42;100834.16;;;4.93;100.00
28588;BME280;15787;49.662;10.162;2022-11-12T08:41:29;100837.47;;;4.46;100.00
28588;BME280;15787;49.662;10.162;2022-11-12T08:44:15;100836.81;;;4.89;100.00
28588;BME280;15787;49.662;10.162;2022-11-12T08:47:02;100839.44;;;4.98;100.00
28588;BME280;15787;49.662;10.162;2022-11-12T08:49:50;100834.25;;;4.96;100.00
28588;BME280;15787;49.662;10.162;2022-11-12T08:52:36;100838.28;;;5.54;100.00
28588;BME280;15787;49.662;10.162;2022-11-12T08:55:23;100838.47;;;5.18;100.00
28588;BME280;15787;49.662;10.162;2022-11-12T08:58:09;100837.84;;;5.25;100.00
28588;BME280;15787;49.662;10.162;2022-11-12T09:00:56;100837.38;;;5.50;100.00
28588;BME280;15787;49.662;10.162;2022-11-12T09:03:42;100839.16;;;5.43;100.00
28588;BME280;15787;49.662;10.162;2022-11-12T09:06:30;100830.00;;;5.70;100.00
28588;BME280;15787;49.662;10.162;2022-11-12T09:09:16;100835.44;;;5.51;100.00
28588;BME280;15787;49.662;10.162;2022-11-12T09:12:03;100834.44;;;5.87;100.00
28588;BME280;15787;49.662;10.162;2022-11-12T09:15:00;100837.69;;;5.61;100.00
28588;BME280;15787;49.662;10.162;2022-11-12T09:18:10;100833.88;;;5.81;100.00
28588;BME280;15787;49.662;10.162;2022-11-12T09:21:01;100828.56;;;6.19;100.00
28588;BME280;15787;49.662;10.162;2022-11-12T09:23:50;100831.50;;;6.26;100.00
28588;BME280;15787;49.662;10.162;2022-11-12T09:26:37;100822.59;;;6.52;100.00
28588;BME280;15787;49.662;10.162;2022-11-12T09:29:23;100826.41;;;6.98;100.00
28588;BME280;15787;49.662;10.162;2022-11-12T09:32:10;100823.72;;;6.67;100.00
28588;BME280;15787;49.662;10.162;2022-11-12T09:34:56;100826.78;;;6.62;100.00
28588;BME280;15787;49.662;10.162;2022-11-12T09:37:43;100823.78;;;6.86;100.00
28588;BME280;15787;49.662;10.162;2022-11-12T09:40:40;100828.88;;;6.84;100.00
28588;BME280;15787;49.662;10.162;2022-11-12T09:43:33;100830.59;;;7.08;100.00
28588;BME280;15787;49.662;10.162;2022-11-12T09:46:26;100827.28;;;7.02;100.00
28588;BME280;15787;49.662;10.162;2022-11-12T09:49:16;100833.56;;;7.37;100.00
28588;BME280;15787;49.662;10.162;2022-11-12T09:52:09;100829.78;;;7.07;100.00
28588;BME280;15787;49.662;10.162;2022-11-12T09:55:04;100824.81;;;6.62;100.00
28588;BME280;15787;49.662;10.162;2022-11-12T09:57:54;100828.41;;;7.36;100.00
28588;BME280;15787;49.662;10.162;2022-11-12T10:00:46;100829.19;;;6.98;100.00
28588;BME280;15787;49.662;10.162;2022-11-12T10:03:41;100825.59;;;6.97;100.00
28588;BME280;15787;49.662;10.162;2022-11-12T10:06:34;100817.31;;;6.82;100.00
28588;BME280;15787;49.662;10.162;2022-11-12T10:09:28;100808.19;;;6.81;100.00
28588;BME280;15787;49.662;10.162;2022-11-12T10:12:22;100810.19;;;7.57;100.00
28588;BME280;15787;49.662;10.162;2022-11-12T10:18:53;100802.56;;;6.78;100.00
28588;BME280;15787;49.662;10.162;2022-11-12T10:21:51;100799.56;;;7.44;100.00
28588;BME280;15787;49.662;10.162;2022-11-12T10:24:41;100797.53;;;6.83;100.00
28588;BME280;15787;49.662;10.162;2022-11-12T10:27:35;100789.13;;;6.80;100.00
28588;BME280;15787;49.662;10.162;2022-11-12T10:30:25;100790.22;;;7.33;100.00
28588;BME280;15787;49.662;10.162;2022-11-12T10:33:13;100792.13;;;7.10;100.00
28588;BME280;15787;49.662;10.162;2022-11-12T10:36:12;100787.38;;;6.91;100.00
28588;BME280;15787;49.662;10.162;2022-11-12T10:39:00;100784.47;;;6.49;100.00
28588;BME280;15787;49.662;10.162;2022-11-12T10:42:00;100779.03;;;6.72;100.00
28588;BME280;15787;49.662;10.162;2022-11-12T10:44:47;100779.31;;;6.67;100.00
28588;BME280;15787;49.662;10.162;2022-11-12T10:47:36;100776.09;;;6.84;100.00
28588;BME280;15787;49.662;10.162;2022-11-12T10:50:29;100772.50;;;6.99;100.00
28588;BME280;15787;49.662;10.162;2022-11-12T10:53:30;100773.03;;;6.70;100.00
28588;BME280;15787;49.662;10.162;2022-11-12T10:56:28;100775.31;;;6.83;100.00
28588;BME280;15787;49.662;10.162;2022-11-12T10:59:17;100769.69;;;6.80;100.00
28588;BME280;15787;49.662;10.162;2022-11-12T11:02:15;100762.97;;;7.00;100.00
28588;BME280;15787;49.662;10.162;2022-11-12T11:05:31;100763.66;;;7.35;100.00
28588;BME280;15787;49.662;10.162;2022-11-12T11:08:33;100761.47;;;7.44;100.00
28588;BME280;15787;49.662;10.162;2022-11-12T11:11:24;100761.00;;;7.42;100.00
28588;BME280;15787;49.662;10.162;2022-11-12T11:14:24;100755.28;;;7.32;100.00
28588;BME280;15787;49.662;10.162;2022-11-12T11:17:15;100760.28;;;7.45;100.00
28588;BME280;15787;49.662;10.162;2022-11-12T11:20:03;100756.84;;;7.52;100.00
28588;BME280;15787;49.662;10.162;2022-11-12T11:22:55;100748.63;;;7.82;100.00
28588;BME280;15787;49.662;10.162;2022-11-12T11:25:42;100753.97;;;7.68;100.00
28588;BME280;15787;49.662;10.162;2022-11-12T11:28:32;100749.38;;;7.56;100.00
28588;BME280;15787;49.662;10.162;2022-11-12T11:31:31;100744.72;;;7.41;100.00
28588;BME280;15787;49.662;10.162;2022-11-12T11:34:32;100740.00;;;7.45;100.00
28588;BME280;15787;49.662;10.162;2022-11-12T11:37:25;100743.19;;;7.43;100.00
28588;BME280;15787;49.662;10.162;2022-11-12T11:40:23;100743.00;;;7.55;100.00
28588;BME280;15787;49.662;10.162;2022-11-12T11:43:24;100732.94;;;7.70;100.00
28588;BME280;15787;49.662;10.162;2022-11-12T11:46:22;100742.81;;;7.90;100.00
28588;BME280;15787;49.662;10.162;2022-11-12T11:49:21;100731.19;;;7.85;100.00
28588;BME280;15787;49.662;10.162;2022-11-12T11:52:18;100734.19;;;7.99;100.00
28588;BME280;15787;49.662;10.162;2022-11-12T11:55:30;100728.13;;;7.67;100.00
28588;BME280;15787;49.662;10.162;2022-11-12T11:58:27;100735.84;;;7.77;100.00
28588;BME280;15787;49.662;10.162;2022-11-12T12:01:20;100734.34;;;7.83;100.00
28588;BME280;15787;49.662;10.162;2022-11-12T12:04:23;100724.28;;;7.98;100.00
28588;BME280;15787;49.662;10.162;2022-11-12T12:07:22;100723.66;;;8.11;100.00
28588;BME280;15787;49.662;10.162;2022-11-12T12:10:20;100731.06;;;8.00;100.00
28588;BME280;15787;49.662;10.162;2022-11-12T12:13:38;100720.63;;;7.71;100.00
28588;BME280;15787;49.662;10.162;2022-11-12T12:16:41;100716.81;;;8.28;100.00
28588;BME280;15787;49.662;10.162;2022-11-12T12:19:48;100719.47;;;8.21;100.00
28588;BME280;15787;49.662;10.162;2022-11-12T12:22:44;100723.09;;;8.25;100.00
28588;BME280;15787;49.662;10.162;2022-11-12T12:25:34;100724.69;;;8.00;100.00
28588;BME280;15787;49.662;10.162;2022-11-12T12:28:28;100712.09;;;8.06;100.00
28588;BME280;15787;49.662;10.162;2022-11-12T12:31:21;100710.22;;;7.91;100.00
28588;BME280;15787;49.662;10.162;2022-11-12T12:34:17;100707.38;;;8.10;100.00
28588;BME280;15787;49.662;10.162;2022-11-12T12:37:10;100705.41;;;8.14;100.00
28588;BME280;15787;49.662;10.162;2022-11-12T12:40:03;100704.25;;;8.15;100.00
28588;BME280;15787;49.662;10.162;2022-11-12T12:42:53;100703.13;;;7.93;100.00
28588;BME280;15787;49.662;10.162;2022-11-12T12:45:42;100702.38;;;7.96;100.00
28588;BME280;15787;49.662;10.162;2022-11-12T12:48:33;100692.63;;;7.83;100.00
28588;BME280;15787;49.662;10.162;2022-11-12T12:51:21;100688.22;;;8.05;100.00
28588;BME280;15787;49.662;10.162;2022-11-12T12:57:34;100666.53;;;7.91;100.00
28588;BME280;15787;49.662;10.162;2022-11-12T13:00:34;100667.56;;;7.80;100.00
28588;BME280;15787;49.662;10.162;2022-11-12T13:06:31;100673.00;;;7.73;100.00
28588;BME280;15787;49.662;10.162;2022-11-12T13:09:22;100673.56;;;7.59;100.00
28588;BME280;15787;49.662;10.162;2022-11-12T13:12:09;100664.34;;;7.78;100.00
28588;BME280;15787;49.662;10.162;2022-11-12T13:15:14;100662.53;;;7.62;100.00
28588;BME280;15787;49.662;10.162;2022-11-12T13:18:01;100664.97;;;7.68;100.00
28588;BME280;15787;49.662;10.162;2022-11-12T13:21:06;100653.78;;;7.64;100.00
28588;BME280;15787;49.662;10.162;2022-11-12T13:23:57;100658.03;;;8.07;100.00
28588;BME280;15787;49.662;10.162;2022-11-12T13:26:55;100650.13;;;7.83;100.00
28588;BME280;15787;49.662;10.162;2022-11-12T13:29:44;100652.47;;;8.07;100.00
28588;BME280;15787;49.662;10.162;2022-11-12T13:32:33;100658.78;;;7.78;100.00
28588;BME280;15787;49.662;10.162;2022-11-12T13:35:25;100654.41;;;8.03;100.00
28588;BME280;15787;49.662;10.162;2022-11-12T13:38:12;100659.56;;;7.78;100.00
28588;BME280;15787;49.662;10.162;2022-11-12T13:41:07;100652.72;;;7.98;100.00
28588;BME280;15787;49.662;10.162;2022-11-12T13:44:03;100654.28;;;7.96;100.00
28588;BME280;15787;49.662;10.162;2022-11-12T13:46:52;100667.22;;;8.37;100.00
28588;BME280;15787;49.662;10.162;2022-11-12T13:49:41;100657.56;;;8.27;100.00
28588;BME280;15787;49.662;10.162;2022-11-12T13:52:27;100652.88;;;8.09;100.00
28588;BME280;15787;49.662;10.162;2022-11-12T13:55:16;100650.91;;;8.09;100.00
28588;BME280;15787;49.662;10.162;2022-11-12T13:58:18;100651.56;;;8.55;100.00
28588;BME280;15787;49.662;10.162;2022-11-12T14:01:05;100653.84;;;8.46;100.00
28588;BME280;15787;49.662;10.162;2022-11-12T14:03:52;100648.31;;;8.50;100.00
28588;BME280;15787;49.662;10.162;2022-11-12T14:06:41;100654.88;;;8.64;100.00
28588;BME280;15787;49.662;10.162;2022-11-12T14:09:46;100652.78;;;7.76;100.00
28588;BME280;15787;49.662;10.162;2022-11-12T14:12:58;100654.19;;;7.89;100.00
28588;BME280;15787;49.662;10.162;2022-11-12T14:15:59;100648.13;;;7.83;100.00
28588;BME280;15787;49.662;10.162;2022-11-12T14:19:04;100648.25;;;7.90;100.00
28588;BME280;15787;49.662;10.162;2022-11-12T14:22:00;100650.75;;;8.25;100.00
28588;BME280;15787;49.662;10.162;2022-11-12T14:24:50;100652.91;;;8.35;100.00
28588;BME280;15787;49.662;10.162;2022-11-12T14:27:38;100653.59;;;8.02;100.00
28588;BME280;15787;49.662;10.162;2022-11-12T14:30:25;100650.97;;;8.13;100.00
28588;BME280;15787;49.662;10.162;2022-11-12T14:33:19;100648.38;;;8.01;100.00
28588;BME280;15787;49.662;10.162;2022-11-12T14:36:11;100651.09;;;8.50;100.00
28588;BME280;15787;49.662;10.162;2022-11-12T14:38:59;100651.59;;;8.29;100.00
28588;BME280;15787;49.662;10.162;2022-11-12T14:41:46;100640.19;;;8.38;100.00
28588;BME280;15787;49.662;10.162;2022-11-12T14:44:36;100639.31;;;8.04;100.00
28588;BME280;15787;49.662;10.162;2022-11-12T14:47:23;100636.59;;;8.34;100.00
28588;BME280;15787;49.662;10.162;2022-11-12T14:50:14;100638.88;;;8.28;100.00
28588;BME280;15787;49.662;10.162;2022-11-12T14:53:04;100634.31;;;8.16;100.00